Time;durP1;ratioP1;P1;durP2;ratioP2;P2;SDS_P1;SDS_P2;PMS_P1;PMS_P2;Temp;Humidity;BMP_temperature;BMP_pressure;BME280_temperature;BME280_humidity;BME280_pressure;Samples;Min_cycle;Max_cycle;Signal;HPM_P1;HPM_P2
2023/10/08 00:00:49;;;;;;;5.55;2.00;;;21.70;80.50;;;;;;5051758;28;20024;-75
2023/10/08 00:03:17;;;;;;;7.60;2.35;;;21.60;82.40;;;;;;5051699;28;20079;-75
2023/10/08 00:05:45;;;;;;;6.40;2.38;;;;;;;;;;5051721;28;20036;-75
2023/10/08 00:08:13;;;;;;;6.15;2.55;;;;;;;;;;5052208;28;20068;-71
2023/10/08 00:10:42;;;;;;;5.30;1.92;;;21.70;82.30;;;;;;5051606;28;20028;-71
2023/10/08 00:13:09;;;;;;;5.38;2.15;;;21.70;79.70;;;;;;5051054;28;20483;-71
2023/10/08 00:15:49;;;;;;;5.80;2.40;;;21.70;83.40;;;;;;5033706;28;20491;-71
2023/10/08 00:18:15;;;;;;;5.82;2.40;;;;;;;;;;5051803;28;20040;-71
2023/10/08 00:20:54;;;;;;;4.85;2.40;;;;;;;;;;5051430;28;20059;-71
2023/10/08 00:23:21;;;;;;;4.35;1.80;;;21.60;83.10;;;;;;5051598;28;20106;-71
2023/10/08 00:25:50;;;;;;;5.85;2.55;;;;;;;;;;5051336;28;20058;-71
2023/10/08 00:28:17;;;;;;;5.90;2.55;;;;;;;;;;5051325;28;20052;-71
2023/10/08 00:30:44;;;;;;;4.22;2.00;;;;;;;;;;5051276;28;20051;-72
2023/10/08 00:33:14;;;;;;;6.18;2.50;;;;;;;;;;5051221;28;20033;-71
2023/10/08 00:35:41;;;;;;;5.18;2.10;;;21.70;80.60;;;;;;5051301;28;20204;-71
2023/10/08 00:38:14;;;;;;;5.07;2.33;;;;;;;;;;5051811;28;20061;-71
2023/10/08 00:40:40;;;;;;;4.93;2.25;;;;;;;;;;5051488;28;20037;-71
2023/10/08 00:43:10;;;;;;;4.40;2.00;;;;;;;;;;5051178;28;20400;-71
2023/10/08 00:45:42;;;;;;;4.07;1.90;;;21.60;82.50;;;;;;5051124;28;20091;-71
2023/10/08 00:48:21;;;;;;;4.53;2.03;;;21.70;83.30;;;;;;5051188;28;20041;-71
2023/10/08 00:50:47;;;;;;;4.32;1.80;;;;;;;;;;5051118;28;20040;-75
2023/10/08 00:53:21;;;;;;;6.13;2.08;;;;;;;;;;5051129;28;20041;-75
2023/10/08 00:55:52;;;;;;;4.40;2.00;;;21.60;83.70;;;;;;5050894;28;20040;-75
2023/10/08 00:58:24;;;;;;;5.03;2.10;;;;;;;;;;5051247;28;20087;-75
2023/10/08 01:00:52;;;;;;;4.88;2.25;;;21.60;80.40;;;;;;5050998;28;20087;-75
2023/10/08 01:03:19;;;;;;;5.50;2.03;;;;;;;;;;5050865;28;20041;-75
2023/10/08 01:05:46;;;;;;;5.63;2.60;;;21.60;83.40;;;;;;5051738;28;20116;-75
2023/10/08 01:08:22;;;;;;;3.88;1.95;;;21.60;83.50;;;;;;5051240;28;20047;-75
2023/10/08 01:10:53;;;;;;;4.63;2.00;;;;;;;;;;5051023;28;20063;-75
2023/10/08 01:13:26;;;;;;;8.68;2.20;;;;;;;;;;5050988;28;20488;-75
2023/10/08 01:15:52;;;;;;;6.07;2.22;;;;;;;;;;5051277;28;20051;-75
2023/10/08 01:18:28;;;;;;;4.20;2.03;;;;;;;;;;5051067;28;20045;-75
2023/10/08 01:20:55;;;;;;;5.05;2.08;;;;;;;;;;5051083;28;20127;-76
2023/10/08 01:23:22;;;;;;;4.43;2.03;;;;;;;;;;5051035;28;20041;-76
2023/10/08 01:25:52;;;;;;;6.28;2.40;;;21.60;82.30;;;;;;5054733;28;20036;-74
2023/10/08 01:28:28;;;;;;;3.97;1.95;;;21.60;83.40;;;;;;5054639;28;20035;-75
2023/10/08 01:30:57;;;;;;;6.65;2.05;;;;;;;;;;5054550;28;20033;-75
2023/10/08 01:33:27;;;;;;;5.13;2.38;;;;;;;;;;5054501;28;20438;-75
2023/10/08 01:35:54;;;;;;;4.57;2.08;;;;;;;;;;5054979;28;20056;-75
2023/10/08 01:38:27;;;;;;;6.05;2.40;;;;;;;;;;5054525;28;20037;-76
2023/10/08 01:40:53;;;;;;;4.55;2.30;;;;;;;;;;5054418;28;20086;-76
2023/10/08 01:43:20;;;;;;;4.43;2.20;;;;;;;;;;5054209;28;20124;-76
2023/10/08 01:45:50;;;;;;;3.80;1.92;;;;;;;;;;5054280;28;20033;-76
2023/10/08 01:48:26;;;;;;;3.80;1.90;;;;;;;;;;5054321;28;20167;-75
2023/10/08 01:50:55;;;;;;;4.85;1.98;;;21.50;83.50;;;;;;5054205;28;20048;-75
2023/10/08 01:53:21;;;;;;;4.23;2.20;;;;;;;;;;5054603;28;20057;-75
2023/10/08 01:55:52;;;;;;;3.58;1.85;;;;;;;;;;5053988;28;20072;-76
2023/10/08 01:58:19;;;;;;;6.65;2.33;;;;;;;;;;5054013;28;20475;-75
2023/10/08 02:00:48;;;;;;;4.47;2.00;;;21.50;78.00;;;;;;5054007;28;20041;-75
2023/10/08 02:03:16;;;;;;;3.88;1.67;;;;;;;;;;5053799;28;20037;-75
2023/10/08 02:05:43;;;;;;;4.93;2.30;;;22.20;82.90;;;;;;5053739;28;20040;-71
2023/10/08 02:08:10;;;;;;;3.75;2.03;;;20.60;82.80;;;;;;5053815;28;20025;-71
2023/10/08 02:10:40;;;;;;;5.60;2.30;;;21.50;83.30;;;;;;5053868;28;20053;-71
2023/10/08 02:13:08;;;;;;;4.57;2.07;;;21.50;80.60;;;;;;5053652;28;20037;-71
2023/10/08 02:15:45;;;;;;;5.22;2.20;;;21.40;83.20;;;;;;5053844;28;20025;-71
2023/10/08 02:18:12;;;;;;;4.00;2.08;;;;;;;;;;5053592;28;20100;-71
2023/10/08 02:20:39;;;;;;;4.90;2.22;;;21.50;82.50;;;;;;5054211;28;20612;-72
2023/10/08 02:23:06;;;;;;;3.70;1.83;;;;;;;;;;5053868;28;20132;-71
2023/10/08 02:25:35;;;;;;;4.28;2.22;;;;;;;;;;5053848;28;20139;-71
2023/10/08 02:28:03;;;;;;;5.53;2.58;;;21.50;83.40;;;;;;5053899;28;20044;-71
2023/10/08 02:30:29;;;;;;;5.43;2.22;;;;;;;;;;5053714;28;20032;-71
2023/10/08 02:32:56;;;;;;;5.55;2.60;;;;;;;;;;5053651;28;20469;-75
2023/10/08 02:35:22;;;;;;;4.22;2.15;;;;;;;;;;5053168;28;20033;-76
2023/10/08 02:37:49;;;;;;;3.80;2.10;;;;;;;;;;5053652;28;20053;-75
2023/10/08 02:40:27;;;;;;;3.65;2.10;;;;;;;;;;5053526;28;20029;-76
2023/10/08 02:42:58;;;;;;;4.15;1.92;;;21.30;83.50;;;;;;5053353;28;20056;-75
2023/10/08 02:45:27;;;;;;;;;;;21.40;82.50;;;;;;5053657;28;20080;-75
2023/10/08 02:47:54;;;;;;;5.85;2.20;;;;;;;;;;5053219;28;20295;-75
2023/10/08 02:50:22;;;;;;;4.63;2.10;;;;;;;;;;5053610;28;20112;-71
2023/10/08 02:52:51;;;;;;;3.67;1.88;;;21.40;77.80;;;;;;5053071;28;20381;-71
2023/10/08 02:55:36;;;;;;;4.13;1.83;;;21.40;80.30;;;;;;5053071;28;20025;-71
2023/10/08 02:58:19;;;;;;;3.25;1.90;;;;;;;;;;5032663;28;20050;-71
2023/10/08 03:00:47;;;;;;;4.63;2.10;;;21.40;83.60;;;;;;5033162;28;20060;-71
2023/10/08 03:03:18;;;;;;;4.15;2.30;;;;;;;;;;5032968;28;20048;-75
2023/10/08 03:05:49;;;;;;;2.88;1.60;;;21.40;83.40;;;;;;5032923;28;20037;-75
2023/10/08 03:08:20;;;;;;;3.08;1.83;;;;;;;;;;5032763;28;20547;-75
2023/10/08 03:10:48;;;;;;;5.53;1.90;;;;;;;;;;5032608;28;20219;-75
2023/10/08 03:13:16;;;;;;;5.57;2.08;;;;;;;;;;5032813;28;20037;-75
2023/10/08 03:18:34;;;;;;;3.70;1.85;;;;;;;;;;5033050;28;20029;-75
2023/10/08 03:21:03;;;;;;;4.00;2.08;;;;;;;;;;5032667;28;20041;-75
2023/10/08 03:23:34;;;;;;;4.35;2.17;;;;;;;;;;5032601;28;20420;-75
2023/10/08 03:26:09;;;;;;;4.68;1.98;;;21.30;81.40;;;;;;5032405;28;20029;-75
2023/10/08 03:28:35;;;;;;;4.20;1.80;;;;;;;;;;5032517;28;20484;-75
2023/10/08 03:31:04;;;;;;;2.88;1.60;;;21.40;81.00;;;;;;5032560;28;20396;-75
2023/10/08 03:33:37;;;;;;;4.85;2.03;;;21.40;78.00;;;;;;5032625;28;20375;-75
2023/10/08 03:36:21;;;;;;;2.97;1.83;;;21.30;82.60;;;;;;5032158;28;20050;-75
2023/10/08 03:38:50;;;;;;;3.95;2.00;;;;;;;;;;5032293;28;20120;-75
2023/10/08 03:41:18;;;;;;;3.42;1.45;;;21.30;83.40;;;;;;5032064;28;20036;-75
2023/10/08 03:44:20;;;;;;;4.15;2.20;;;21.30;81.90;;;;;;5031972;28;20128;-75
2023/10/08 03:46:42;;;;;;;4.30;1.80;;;;;;;;;;5029657;28;20050;-70
2023/10/08 03:51:48;;;;;;;4.30;2.10;;;;;;;;;;5032192;28;20034;-70
2023/10/08 03:54:18;;;;;;;2.83;1.50;;;;;;;;;;5031737;28;20033;-70
2023/10/08 03:56:48;;;;;;;4.90;2.33;;;21.30;80.10;;;;;;5040903;28;20127;-70
2023/10/08 03:59:31;;;;;;;3.17;1.75;;;21.40;83.50;;;;;;5051618;28;20041;-70
2023/10/08 04:02:23;;;;;;;4.10;1.77;;;21.30;78.00;;;;;;5051747;28;20033;-70
2023/10/08 04:04:56;;;;;;;;;;;21.30;84.10;;;;;;5051499;28;20041;-70
2023/10/08 04:12:34;;;;;;;3.50;1.90;;;;;;;;;;5051782;28;20037;-70
2023/10/08 04:15:07;;;;;;;2.95;1.75;;;21.20;83.40;;;;;;5051959;28;20429;-75
2023/10/08 04:17:43;;;;;;;3.80;1.77;;;21.20;83.50;;;;;;5051576;28;20061;-75
2023/10/08 04:20:30;;;;;;;3.55;1.80;;;21.30;81.20;;;;;;5051452;28;20029;-75
2023/10/08 04:22:59;;;;;;;3.42;1.75;;;;;;;;;;5051086;28;20064;-75
2023/10/08 04:25:25;;;;;;;4.85;2.15;;;;;;;;;;5051812;28;20510;-75
2023/10/08 04:27:52;;;;;;;2.38;1.48;;;;;;;;;;5051335;28;20515;-75
2023/10/08 04:30:18;;;;;;;4.78;2.03;;;;;;;;;;5051220;28;20503;-75
2023/10/08 04:32:44;;;;;;;3.22;1.80;;;;;;;;;;5051296;28;20052;-75
2023/10/08 04:35:14;;;;;;;3.80;1.80;;;;;;;;;;5051307;28;20033;-75
2023/10/08 04:37:41;;;;;;;4.18;2.35;;;;;;;;;;5051274;28;20037;-75
2023/10/08 04:40:15;;;;;;;2.55;1.60;;;21.40;80.40;;;;;;5051171;28;20040;-75
2023/10/08 04:42:44;;;;;;;2.50;1.65;;;;;;;;;;5051207;28;20198;-75
2023/10/08 04:45:13;;;;;;;3.28;1.92;;;;;;;;;;5051325;28;20415;-71
2023/10/08 04:47:42;;;;;;;2.35;1.45;;;21.20;83.60;;;;;;5051203;28;20116;-72
2023/10/08 04:50:14;;;;;;;3.63;1.92;;;;;;;;;;5051142;28;20047;-70
2023/10/08 04:52:46;;;;;;;3.67;2.30;;;;;;;;;;5051155;28;20488;-71
2023/10/08 04:55:20;;;;;;;3.20;1.98;;;;;;;;;;5051314;28;20036;-71
2023/10/08 04:57:49;;;;;;;3.08;1.75;;;;;;;;;;5051801;28;20120;-71
2023/10/08 05:00:16;;;;;;;3.03;1.63;;;21.20;81.00;;;;;;5055107;28;20033;-71
2023/10/08 05:02:53;;;;;;;2.60;1.75;;;;;;;;;;5055336;28;20041;-75
2023/10/08 05:15:37;;;;;;;2.95;1.63;;;;;;;;;;5055160;28;20045;-71
2023/10/08 05:28:35;;;;;;;3.00;1.67;;;;;;;;;;5054534;28;20041;-70
2023/10/08 05:31:31;;;;;;;3.00;1.85;;;21.10;78.40;;;;;;5055241;28;20044;-71
2023/10/08 05:42:19;;;;;;;3.63;1.95;;;;;;;;;;5054584;28;20071;-75
2023/10/08 05:45:05;;;;;;;3.00;1.70;;;;;;;;;;5054406;28;20044;-75
2023/10/08 05:55:26;;;;;;;4.00;2.03;;;;;;;;;;5054396;28;20053;-75
2023/10/08 05:58:12;;;;;;;3.72;1.92;;;21.10;83.40;;;;;;5053881;28;20084;-75
2023/10/08 06:01:05;;;;;;;1.98;1.42;;;21.10;83.40;;;;;;5054324;28;20112;-71
2023/10/08 06:03:32;;;;;;;2.65;1.52;;;;;;;;;;5053633;28;20499;-70
2023/10/08 06:09:05;;;;;;;2.17;1.45;;;21.00;78.00;;;;;;5053828;28;20443;-71
2023/10/08 06:11:56;;;;;;;2.25;1.63;;;21.10;82.30;;;;;;5051036;28;20033;-74
2023/10/08 06:14:52;;;;;;;3.25;1.60;;;;;;;;;;5053938;28;20029;-75
2023/10/08 06:17:23;;;;;;;3.53;1.83;;;;;;;;;;5053552;28;20109;-75
2023/10/08 06:19:52;;;;;;;2.80;1.70;;;21.10;80.30;;;;;;5053982;28;20037;-75
2023/10/08 06:22:23;;;;;;;2.20;1.40;;;;;;;;;;5053756;28;20037;-75
2023/10/08 06:24:58;;;;;;;3.10;1.88;;;;;;;;;;5053437;28;20041;-75
2023/10/08 06:27:25;;;;;;;3.05;1.70;;;;;;;;;;5054441;28;20033;-71
2023/10/08 06:29:52;;;;;;;2.58;1.65;;;;;;;;;;5053707;28;20033;-71
2023/10/08 06:32:22;;;;;;;2.25;1.45;;;;;;;;;;5053367;28;20491;-72
2023/10/08 06:34:48;;;;;;;1.27;1.17;;;;;;;;;;5053547;28;20045;-70
2023/10/08 06:37:16;;;;;;;3.97;1.63;;;;;;;;;;5053321;28;20107;-70
2023/10/08 06:39:48;;;;;;;2.53;1.83;;;;;;;;;;5053197;28;20115;-70
2023/10/08 06:42:16;;;;;;;2.13;1.52;;;;;;;;;;5052926;28;20588;-71
2023/10/08 06:44:45;;;;;;;2.80;1.75;;;;;;;;;;5053199;28;20411;-71
2023/10/08 06:47:11;;;;;;;2.28;1.75;;;;;;;;;;5053235;28;20098;-71
2023/10/08 06:49:38;;;;;;;2.47;1.95;;;;;;;;;;5052843;28;20041;-71
2023/10/08 06:52:05;;;;;;;2.95;1.98;;;;;;;;;;5053030;28;20503;-71
2023/10/08 06:54:32;;;;;;;3.28;1.98;;;;;;;;;;5052875;28;20037;-71
2023/10/08 06:56:59;;;;;;;1.65;1.27;;;;;;;;;;5053326;28;20045;-71
2023/10/08 06:59:31;;;;;;;2.25;1.70;;;;;;;;;;5052754;28;20045;-71
2023/10/08 07:01:58;;;;;;;2.85;1.50;;;;;;;;;;5053100;28;20072;-71
2023/10/08 07:04:25;;;;;;;3.10;1.80;;;;;;;;;;5052864;28;20049;-71
2023/10/08 07:06:51;;;;;;;2.85;1.67;;;;;;;;;;5053041;28;20120;-71
2023/10/08 07:11:54;;;;;;;2.63;1.58;;;;;;;;;;5053124;28;20040;-74
2023/10/08 07:14:27;;;;;;;2.47;1.70;;;21.00;83.30;;;;;;5052532;28;20520;-74
2023/10/08 07:17:03;;;;;;;1.80;1.60;;;21.00;83.30;;;;;;5052632;28;20037;-79
2023/10/08 07:19:38;;;;;;;2.95;1.38;;;;;;;;;;5052615;28;20510;-76
2023/10/08 07:22:18;;;;;;;2.60;1.65;;;21.00;83.30;;;;;;5051890;28;20029;-76
2023/10/08 07:24:50;;;;;;;2.92;1.52;;;;;;;;;;5052948;28;20045;-72
2023/10/08 07:27:21;;;;;;;4.28;2.00;;;;;;;;;;5052357;28;20040;-73
2023/10/08 07:29:47;;;;;;;2.83;1.60;;;;;;;;;;5052494;28;20537;-71
2023/10/08 07:32:18;;;;;;;2.25;1.50;;;;;;;;;;5052578;28;20395;-72
2023/10/08 07:34:45;;;;;;;2.40;1.45;;;;;;;;;;5052457;28;20037;-72
2023/10/08 07:37:12;;;;;;;2.45;1.42;;;;;;;;;;5052620;28;20037;-74
2023/10/08 07:39:46;;;;;;;2.88;1.80;;;;;;;;;;5052176;28;20514;-75
2023/10/08 07:42:13;;;;;;;2.85;1.65;;;;;;;;;;5052341;28;20120;-76
2023/10/08 07:44:39;;;;;;;2.30;1.60;;;;;;;;;;5051979;28;20041;-75
2023/10/08 07:47:14;;;;;;;3.50;1.58;;;20.90;80.70;;;;;;5051959;28;20502;-75
2023/10/08 07:49:43;;;;;;;2.47;1.50;;;;;;;;;;5052432;28;20372;-73
2023/10/08 07:52:15;;;;;;;3.00;1.77;;;;;;;;;;5051991;28;20043;-76
2023/10/08 07:54:41;;;;;;;3.58;1.35;;;;;;;;;;5052423;28;20076;-75
2023/10/08 07:57:26;;;;;;;2.78;1.70;;;;;;;;;;5051621;28;20041;-75
2023/10/08 08:00:17;;;;;;;4.53;1.88;;;;;;;;;;5051990;28;20052;-76
2023/10/08 08:02:42;;;;;;;3.28;1.35;;;;;;;;;;5051482;28;20044;-76
2023/10/08 08:05:08;;;;;;;3.85;1.75;;;;;;;;;;5051975;28;20045;-76
2023/10/08 08:07:35;;;;;;;4.22;2.00;;;;;;;;;;5052023;28;20419;-76
2023/10/08 08:10:04;;;;;;;2.22;1.25;;;;;;;;;;5051609;28;20551;-76
2023/10/08 08:12:32;;;;;;;3.55;1.70;;;;;;;;;;5051659;28;20048;-75
2023/10/08 08:14:59;;;;;;;3.78;1.88;;;;;;;;;;5051670;28;20455;-76
2023/10/08 08:17:25;;;;;;;1.95;1.35;;;;;;;;;;5051859;28;20381;-75
2023/10/08 08:19:52;;;;;;;2.90;1.52;;;21.00;81.30;;;;;;5051815;28;20104;-75
2023/10/08 08:22:30;;;;;;;3.88;1.40;;;21.00;83.70;;;;;;5052273;28;20426;-76
2023/10/08 08:25:15;;;;;;;5.43;1.55;;;;;;;;;;5050246;28;20045;-77
2023/10/08 08:27:46;;;;;;;4.30;1.65;;;20.90;83.60;;;;;;5051896;28;20032;-76
2023/10/08 08:30:17;;;;;;;3.55;1.90;;;;;;;;;;5051507;28;20041;-77
2023/10/08 08:32:47;;;;;;;3.28;1.50;;;21.00;83.70;;;;;;5051307;28;20044;-77
2023/10/08 08:35:16;;;;;;;3.05;1.63;;;;;;;;;;5051542;28;20036;-77
2023/10/08 08:37:43;;;;;;;2.90;1.45;;;;;;;;;;5051795;28;20044;-77
2023/10/08 08:40:17;;;;;;;2.10;1.50;;;20.90;82.30;;;;;;5051534;28;20106;-77
2023/10/08 08:42:52;;;;;;;2.50;1.58;;;20.90;78.30;;;;;;5051667;28;20071;-77
2023/10/08 08:45:24;;;;;;;2.60;1.60;;;20.90;78.10;;;;;;5051311;28;20040;-77
2023/10/08 08:47:54;;;;;;;4.00;2.08;;;;;;;;;;5051244;28;20095;-76
2023/10/08 08:50:21;;;;;;;1.90;1.40;;;;;;;;;;5051796;28;20593;-73
2023/10/08 08:52:47;;;;;;;3.35;1.60;;;;;;;;;;5053704;28;20033;-73
2023/10/08 08:55:14;;;;;;;2.95;1.73;;;;;;;;;;5051259;28;20033;-72
2023/10/08 08:57:46;;;;;;;2.05;1.10;;;21.40;78.70;;;;;;5050898;28;20463;-72
2023/10/08 09:00:13;;;;;;;3.72;1.50;;;21.30;81.10;;;;;;5050987;28;20086;-72
2023/10/08 09:02:40;;;;;;;3.80;1.50;;;;;;;;;;5051190;28;20072;-75
2023/10/08 09:05:42;;;;;;;2.53;1.20;;;;;;;;;;5051219;28;20033;-75
2023/10/08 09:08:02;;;;;;;4.03;1.25;;;;;;;;;;5047838;28;20037;-76
2023/10/08 09:10:29;;;;;;;2.58;1.35;;;21.00;80.50;;;;;;5051157;28;20408;-76
2023/10/08 09:12:58;;;;;;;2.05;1.40;;;21.00;83.80;;;;;;5050921;28;20037;-76
2023/10/08 09:15:28;;;;;;;4.13;1.52;;;21.20;84.00;;;;;;5051200;28;20025;-77
2023/10/08 09:17:55;;;;;;;2.67;1.20;;;;;;;;;;5051516;28;20104;-77
2023/10/08 09:20:22;;;;;;;2.60;1.33;;;;;;;;;;5051152;28;20048;-75
2023/10/08 09:23:07;;;;;;;1.40;0.98;;;21.10;78.50;;;;;;5050771;28;20521;-74
2023/10/08 09:25:34;;;;;;;1.85;1.30;;;21.00;83.80;;;;;;5050927;28;20043;-75
2023/10/08 09:28:01;;;;;;;1.92;1.20;;;;;;;;;;5050833;28;20036;-75
2023/10/08 09:30:30;;;;;;;4.78;1.25;;;21.00;84.00;;;;;;5050957;28;20083;-75
2023/10/08 09:32:56;;;;;;;4.05;1.25;;;;;;;;;;5051132;28;20040;-76
2023/10/08 09:35:24;;;;;;;3.10;1.40;;;21.10;84.00;;;;;;5051039;28;20037;-76
2023/10/08 09:37:51;;;;;;;1.45;1.20;;;;;;;;;;5051169;28;20036;-75
2023/10/08 09:40:21;;;;;;;3.00;1.52;;;21.00;83.90;;;;;;5051025;28;20116;-75
2023/10/08 09:42:47;;;;;;;2.70;1.30;;;21.10;83.00;;;;;;5033236;28;20037;-76
2023/10/08 09:45:14;;;;;;;2.58;1.38;;;;;;;;;;5052276;28;20083;-77
2023/10/08 09:47:49;;;;;;;3.03;1.50;;;21.10;84.00;;;;;;5054780;28;20044;-72
2023/10/08 09:50:16;;;;;;;3.33;1.58;;;;;;;;;;5054511;28;20044;-72
2023/10/08 09:53:06;;;;;;;2.03;1.55;;;21.10;84.30;;;;;;5054402;28;20112;-72
2023/10/08 09:55:32;;;;;;;3.30;1.45;;;;;;;;;;5054102;28;20255;-73
2023/10/08 09:57:59;;;;;;;2.17;1.38;;;;;;;;;;5053960;28;20176;-78
2023/10/08 10:00:33;;;;;;;3.17;1.38;;;21.10;84.10;;;;;;5054137;28;20503;-76
2023/10/08 10:03:01;;;;;;;4.15;1.33;;;21.10;84.10;;;;;;5054137;28;20060;-76
2023/10/08 10:05:36;;;;;;;2.30;1.45;;;21.20;78.80;;;;;;5054092;28;20037;-77
2023/10/08 10:08:09;;;;;;;2.80;1.35;;;21.10;84.00;;;;;;5053866;28;20037;-76
2023/10/08 10:10:38;;;;;;;2.58;1.40;;;21.20;83.20;;;;;;5053638;28;20033;-76
2023/10/08 10:13:05;;;;;;;2.67;1.40;;;21.10;83.90;;;;;;5053797;28;20136;-75
2023/10/08 10:15:35;;;;;;;2.95;1.60;;;21.10;78.70;;;;;;5053690;28;20120;-77
2023/10/08 10:18:15;;;;;;;2.22;1.52;;;21.20;78.80;;;;;;5053678;28;20094;-72
2023/10/08 10:21:23;;;;;;;2.45;1.40;;;21.10;78.70;;;;;;5053644;28;20048;-72
2023/10/08 10:23:53;;;;;;;3.47;1.70;;;;;;;;;;5038049;28;20064;-73
2023/10/08 10:26:35;;;;;;;;;;;21.10;78.70;;;;;;5053880;28;20511;-73
2023/10/08 10:29:15;;;;;;;3.67;1.40;;;21.20;78.90;;;;;;5053381;28;19912;-72
2023/10/08 10:31:44;;;;;;;2.72;1.67;;;21.10;84.40;;;;;;5053235;28;20400;-80
2023/10/08 10:34:12;;;;;;;4.40;1.52;;;;;;;;;;5053199;28;20033;-72
2023/10/08 10:36:40;;;;;;;2.42;1.70;;;21.20;84.60;;;;;;5053279;28;20041;-72
2023/10/08 10:39:16;;;;;;;1.67;1.25;;;21.20;83.60;;;;;;5053415;28;20045;-74
2023/10/08 10:41:46;;;;;;;4.18;1.60;;;21.80;79.50;;;;;;5053291;28;20094;-73
2023/10/08 10:44:13;;;;;;;4.05;1.90;;;21.20;83.00;;;;;;5052969;28;20048;-73
2023/10/08 10:46:44;;;;;;;3.72;1.60;;;21.20;79.20;;;;;;5052862;28;20550;-73
2023/10/08 10:51:42;;;;;;;3.75;1.67;;;;;;;;;;5053184;28;20029;-73
2023/10/08 10:54:19;;;;;;;4.55;2.25;;;;;;;;;;5053280;28;20102;-74
2023/10/08 10:56:47;;;;;;;6.63;2.25;;;21.20;83.30;;;;;;5052434;28;20057;-76
2023/10/08 10:59:26;;;;;;;4.28;1.98;;;;;;;;;;5052980;28;20039;-74
2023/10/08 11:02:05;;;;;;;3.15;1.73;;;;;;;;;;5052675;28;20044;-75
2023/10/08 11:04:33;;;;;;;6.25;2.08;;;;;;;;;;5052572;28;20052;-74
2023/10/08 11:07:00;;;;;;;6.78;2.38;;;;;;;;;;5052944;28;20060;-73
2023/10/08 11:09:38;;;;;;;7.40;1.92;;;;;;;;;;5052534;28;20037;-72
2023/10/08 11:12:12;;;;;;;4.13;1.95;;;21.20;81.60;;;;;;5052669;28;20044;-72
2023/10/08 11:14:42;;;;;;;4.20;2.05;;;21.40;84.90;;;;;;5052611;28;20483;-71
2023/10/08 11:17:25;;;;;;;4.97;1.80;;;21.30;79.40;;;;;;5053084;28;20029;-72
2023/10/08 11:19:51;;;;;;;4.82;1.88;;;;;;;;;;5052391;28;20123;-70
2023/10/08 11:22:18;;;;;;;3.50;1.85;;;;;;;;;;5052202;28;20048;-71
2023/10/08 11:24:47;;;;;;;2.38;1.75;;;21.30;84.80;;;;;;5052327;28;20515;-71
2023/10/08 11:27:28;;;;;;;6.10;2.47;;;21.30;79.30;;;;;;5052213;28;20040;-73
2023/10/08 11:30:00;;;;;;;3.45;1.95;;;21.30;84.70;;;;;;5052882;28;20036;-74
2023/10/08 11:32:26;;;;;;;4.85;1.95;;;21.30;84.80;;;;;;5052183;28;20045;-75
2023/10/08 11:35:00;;;;;;;4.15;2.08;;;21.30;79.30;;;;;;5052403;28;20036;-76
2023/10/08 11:37:27;;;;;;;4.03;1.80;;;21.40;82.10;;;;;;5052380;28;20132;-76
2023/10/08 11:39:58;;;;;;;5.20;2.20;;;;;;;;;;5052288;28;20026;-76
2023/10/08 11:45:05;;;;;;;2.95;1.83;;;;;;;;;;5052003;28;20043;-72
2023/10/08 11:47:35;;;;;;;3.67;1.70;;;;;;;;;;5052336;28;20042;-77
2023/10/08 11:50:11;;;;;;;5.13;2.22;;;21.30;83.40;;;;;;5051938;28;20106;-72
2023/10/08 11:52:41;;;;;;;2.33;1.40;;;21.30;85.00;;;;;;5051836;28;20037;-72
2023/10/08 11:55:07;;;;;;;;;;;21.40;85.50;;;;;;5052530;28;20075;-72
2023/10/08 11:57:35;;;;;;;3.30;1.77;;;;;;;;;;5051637;28;19933;-72
2023/10/08 12:00:18;;;;;;;4.18;1.98;;;21.30;85.10;;;;;;5052053;28;20037;-72
2023/10/08 12:02:44;;;;;;;5.38;2.03;;;;;;;;;;5051554;28;20443;-73
2023/10/08 12:05:19;;;;;;;2.88;1.50;;;;;;;;;;5051588;28;20087;-73
2023/10/08 12:07:50;;;;;;;2.22;1.60;;;21.40;79.80;;;;;;5050996;28;20074;-72
2023/10/08 12:10:22;;;;;;;3.72;1.60;;;21.40;82.30;;;;;;5051576;28;20503;-71
2023/10/08 12:12:53;;;;;;;4.07;1.50;;;21.40;85.40;;;;;;5051890;28;20128;-71
2023/10/08 12:15:26;;;;;;;5.22;1.98;;;21.40;85.20;;;;;;5051946;28;20055;-72
2023/10/08 12:18:08;;;;;;;2.85;1.73;;;;;;;;;;5051437;28;20075;-71
2023/10/08 12:20:38;;;;;;;4.32;1.77;;;21.40;80.10;;;;;;5051726;28;20041;-71
2023/10/08 12:23:05;;;;;;;4.15;1.70;;;21.30;84.20;;;;;;5051422;28;20037;-71
2023/10/08 12:25:32;;;;;;;3.58;1.60;;;21.40;84.90;;;;;;5051629;28;20026;-72
2023/10/08 12:28:04;;;;;;;3.13;2.00;;;21.40;80.30;;;;;;5051256;28;20053;-72
2023/10/08 12:30:31;;;;;;;5.10;1.70;;;21.40;82.80;;;;;;5051608;28;20076;-71
2023/10/08 12:33:00;;;;;;;2.92;1.70;;;21.40;85.70;;;;;;5051539;28;20041;-72
2023/10/08 12:35:49;;;;;;;5.72;1.88;;;21.40;80.20;;;;;;5051075;28;20060;-72
2023/10/08 12:38:34;;;;;;;4.10;2.08;;;;;;;;;;5051086;28;20096;-73
2023/10/08 12:41:20;;;;;;;4.53;2.17;;;;;;;;;;5051132;28;20549;-73
2023/10/08 12:44:08;;;;;;;6.13;1.50;;;;;;;;;;5051568;28;20049;-74
2023/10/08 12:46:52;;;;;;;4.38;2.33;;;;;;;;;;5050828;28;20476;-74
2023/10/08 12:49:39;;;;;;;4.15;2.28;;;;;;;;;;5051022;28;20047;-74
2023/10/08 12:52:27;;;;;;;2.97;1.70;;;;;;;;;;5050953;28;20142;-74
2023/10/08 12:55:11;;;;;;;3.30;1.55;;;;;;;;;;5050664;28;20040;-74
2023/10/08 12:58:05;;;;;;;3.58;1.83;;;;;;;;;;5050844;28;20070;-74
2023/10/08 13:00:42;;;;;;;3.08;1.50;;;;;;;;;;5049444;28;20040;-74
2023/10/08 13:03:32;;;;;;;2.50;1.50;;;;;;;;;;5050784;28;20106;-74
2023/10/08 13:06:22;;;;;;;3.03;1.90;;;21.60;80.00;;;;;;5050390;28;20431;-74
2023/10/08 13:09:14;;;;;;;4.13;1.65;;;;;;;;;;5050787;28;20041;-73
2023/10/08 13:12:00;;;;;;;6.75;2.20;;;;;;;;;;5050772;28;20450;-74
2023/10/08 13:14:46;;;;;;;3.00;1.52;;;;;;;;;;5050849;28;20041;-74
2023/10/08 13:17:32;;;;;;;2.10;1.35;;;;;;;;;;5050857;28;20044;-74
2023/10/08 13:20:18;;;;;;;4.55;1.67;;;;;;;;;;5054040;28;20337;-74
2023/10/08 13:23:06;;;;;;;5.20;1.75;;;21.70;82.80;;;;;;5054449;28;20029;-74
2023/10/08 13:25:58;;;;;;;6.78;1.65;;;;;;;;;;5054557;28;20037;-72
2023/10/08 13:28:42;;;;;;;2.40;1.67;;;;;;;;;;5054257;28;20033;-72
2023/10/08 13:31:29;;;;;;;3.38;1.73;;;;;;;;;;5054362;28;20044;-73
2023/10/08 13:33:56;;;;;;;1.48;1.17;;;;;;;;;;5054498;28;20116;-72
2023/10/08 13:36:23;;;;;;;2.17;1.35;;;21.80;82.10;;;;;;5054417;28;20041;-72
2023/10/08 13:38:50;;;;;;;3.33;1.50;;;;;;;;;;5054410;28;20124;-72
2023/10/08 13:41:16;;;;;;;3.17;1.60;;;;;;;;;;5054889;28;20045;-74
2023/10/08 13:43:46;;;;;;;3.50;1.63;;;21.80;79.40;;;;;;5054239;28;20175;-74
2023/10/08 13:46:17;;;;;;;2.80;2.05;;;21.90;79.60;;;;;;5054230;28;20044;-74
2023/10/08 13:48:47;;;;;;;2.85;1.40;;;21.90;85.00;;;;;;5054444;28;20033;-73
2023/10/08 13:51:14;;;;;;;2.80;1.83;;;;;;;;;;5054148;28;20463;-73
2023/10/08 13:53:41;;;;;;;2.55;1.70;;;22.00;83.20;;;;;;5054159;28;20033;-73
2023/10/08 13:56:07;;;;;;;2.38;1.27;;;;;;;;;;5053793;28;20045;-74
2023/10/08 13:58:40;;;;;;;3.75;1.60;;;22.10;81.90;;;;;;5053911;28;20065;-74
2023/10/08 14:01:18;;;;;;;2.75;1.30;;;;;;;;;;5053925;28;20040;-73
2023/10/08 14:03:48;;;;;;;3.63;1.88;;;21.90;81.80;;;;;;5053867;28;20051;-73
2023/10/08 14:06:16;;;;;;;2.85;1.83;;;;;;;;;;5053838;28;20079;-73
2023/10/08 14:08:43;;;;;;;2.83;1.83;;;;;;;;;;5054057;28;20073;-73
2023/10/08 14:11:12;;;;;;;2.95;1.90;;;;;;;;;;5054223;28;20032;-72
2023/10/08 14:13:41;;;;;;;2.15;1.27;;;;;;;;;;5053826;28;20044;-72
2023/10/08 14:16:10;;;;;;;2.53;1.60;;;;;;;;;;5053528;28;20033;-72
2023/10/08 14:18:42;;;;;;;2.85;1.50;;;;;;;;;;5053677;28;20099;-72
2023/10/08 14:21:10;;;;;;;2.35;1.58;;;;;;;;;;5053592;28;20095;-73
2023/10/08 14:23:39;;;;;;;3.45;1.50;;;22.60;83.50;;;;;;5053296;28;20052;-73
2023/10/08 14:26:09;;;;;;;3.63;2.00;;;22.60;78.40;;;;;;5053598;28;20471;-74
2023/10/08 14:28:50;;;;;;;2.15;1.67;;;22.60;81.80;;;;;;5053361;28;20044;-73
2023/10/08 14:31:17;;;;;;;1.67;1.55;;;;;;;;;;5052837;28;20037;-73
2023/10/08 14:33:55;;;;;;;2.08;1.60;;;23.10;82.90;;;;;;5053388;28;20044;-73
2023/10/08 14:44:38;;;;;;;2.42;2.15;;;;;;;;;;5052942;28;20048;-73
2023/10/08 14:47:06;;;;;;;3.72;2.42;;;22.90;83.10;;;;;;5053050;28;20037;-72
2023/10/08 14:49:33;;;;;;;2.83;2.63;;;;;;;;;;5052918;28;20029;-71
2023/10/08 14:51:59;;;;;;;3.25;2.38;;;;;;;;;;5053128;28;20041;-71
2023/10/08 14:54:25;;;;;;;3.30;2.80;;;;;;;;;;5035162;28;20083;-72
2023/10/08 14:56:51;;;;;;;3.75;2.97;;;;;;;;;;5052716;28;20064;-73
2023/10/08 14:59:18;;;;;;;3.90;3.10;;;;;;;;;;5053086;28;20102;-73
2023/10/08 15:01:44;;;;;;;4.90;3.35;;;22.90;81.60;;;;;;5052819;28;20106;-73
2023/10/08 15:04:11;;;;;;;4.53;3.22;;;;;;;;;;5052834;28;20041;-74
2023/10/08 15:06:38;;;;;;;6.05;2.75;;;;;;;;;;5052849;28;20106;-74
2023/10/08 15:09:04;;;;;;;6.28;3.17;;;;;;;;;;5052830;28;20037;-72
2023/10/08 15:11:30;;;;;;;6.30;3.28;;;;;;;;;;5052641;28;20040;-72
2023/10/08 15:13:57;;;;;;;5.25;3.05;;;22.70;81.40;;;;;;5052792;28;20025;-72
2023/10/08 15:16:23;;;;;;;4.47;2.55;;;;;;;;;;5052782;28;20112;-72
2023/10/08 15:18:50;;;;;;;4.70;2.90;;;22.70;82.30;;;;;;5052546;28;20035;-75
2023/10/08 15:21:17;;;;;;;6.35;3.17;;;;;;;;;;5052461;28;20167;-73
2023/10/08 15:23:43;;;;;;;8.63;2.85;;;;;;;;;;5052246;28;20045;-75
2023/10/08 15:26:11;;;;;;;9.15;3.05;;;;;;;;;;5052373;28;20108;-75